createdAt,value
2018-04-10T00:01:35.631Z,23.20
2018-04-10T00:04:03.111Z,21.97
2018-04-10T00:06:30.569Z,22.43
2018-04-10T00:08:58.064Z,20.73
2018-04-10T00:11:25.581Z,21.20
2018-04-10T00:13:53.032Z,19.73
2018-04-10T00:16:20.502Z,20.90
2018-04-10T00:18:47.999Z,21.67
2018-04-10T00:21:15.496Z,23.30
2018-04-10T00:23:42.957Z,21.93
2018-04-10T00:26:10.416Z,22.40
2018-04-10T00:28:37.919Z,21.37
2018-04-10T00:31:05.392Z,22.87
2018-04-10T00:33:32.850Z,22.70
2018-04-10T00:36:00.335Z,21.90
2018-04-10T00:38:27.829Z,24.80
2018-04-10T00:40:55.288Z,24.80
2018-04-10T00:43:22.764Z,24.53
2018-04-10T00:45:50.340Z,26.17
2018-04-10T00:48:17.792Z,24.20
2018-04-10T00:50:45.272Z,24.40
2018-04-10T00:53:24.540Z,25.37
2018-04-10T00:55:52.017Z,26.40
2018-04-10T00:58:19.482Z,23.00
2018-04-10T01:00:47.000Z,25.93
2018-04-10T01:03:14.456Z,26.90
2018-04-10T01:05:41.923Z,27.37
2018-04-10T01:08:09.405Z,28.07
2018-04-10T01:10:36.857Z,26.70
2018-04-10T01:13:04.337Z,27.20
2018-04-10T01:15:31.843Z,26.70
2018-04-10T01:17:59.340Z,28.10
2018-04-10T01:20:26.799Z,27.17
2018-04-10T01:22:54.328Z,26.97
2018-04-10T01:25:21.921Z,25.40
2018-04-10T01:27:49.391Z,23.60
2018-04-10T01:30:16.884Z,25.37
2018-04-10T01:32:44.374Z,27.17
2018-04-10T01:35:11.842Z,23.23
2018-04-10T01:37:39.348Z,25.77
2018-04-10T01:40:06.871Z,26.83
2018-04-10T01:42:34.428Z,25.60
2018-04-10T01:45:01.908Z,25.13
2018-04-10T01:47:29.371Z,25.57
2018-04-10T01:49:56.826Z,25.57
2018-04-10T01:52:24.303Z,27.53
2018-04-10T01:54:51.924Z,23.30
2018-04-10T01:57:19.404Z,25.90
2018-04-10T01:59:46.868Z,26.00
2018-04-10T02:02:14.507Z,23.83
2018-04-10T02:04:42.057Z,23.57
2018-04-10T02:07:09.532Z,20.20
2018-04-10T02:09:37.024Z,25.80
2018-04-10T02:12:04.543Z,25.77
2018-04-10T02:14:32.055Z,24.77
2018-04-10T02:16:59.536Z,25.67
2018-04-10T02:19:27.096Z,26.20
2018-04-10T02:21:54.552Z,28.10
2018-04-10T02:24:22.129Z,25.10
2018-04-10T02:26:49.588Z,27.00
2018-04-10T02:29:17.044Z,24.43
2018-04-10T02:31:44.593Z,23.30
2018-04-10T02:34:12.052Z,22.77
2018-04-10T02:36:39.507Z,24.50
2018-04-10T02:39:06.984Z,30.13
2018-04-10T02:41:34.440Z,29.40
2018-04-10T02:44:01.987Z,26.40
2018-04-10T02:46:29.540Z,29.50
2018-04-10T02:48:57.017Z,30.30
2018-04-10T02:51:24.481Z,29.43
2018-04-10T02:53:51.959Z,32.17
2018-04-10T02:56:19.456Z,28.80
2018-04-10T02:58:46.924Z,28.93
2018-04-10T03:01:14.384Z,29.50
2018-04-10T03:03:41.897Z,18.90
2018-04-10T03:06:09.408Z,26.23
2018-04-10T03:08:36.859Z,24.33
2018-04-10T03:11:04.378Z,29.53
2018-04-10T03:13:31.884Z,30.37
2018-04-10T03:15:59.437Z,32.70
2018-04-10T03:18:26.924Z,27.87
2018-04-10T03:20:54.379Z,28.93
2018-04-10T03:23:21.869Z,26.43
2018-04-10T03:25:49.376Z,31.43
2018-04-10T03:28:16.827Z,25.87
2018-04-10T03:30:44.335Z,32.20
2018-04-10T03:33:11.794Z,28.40
2018-04-10T03:35:39.347Z,26.47
2018-04-10T03:38:06.865Z,27.50
2018-04-10T03:40:34.331Z,30.27
2018-04-10T03:43:01.789Z,28.10
2018-04-10T03:45:29.310Z,27.43
2018-04-10T03:47:56.927Z,29.20
2018-04-10T03:50:24.361Z,27.27
2018-04-10T03:52:51.832Z,30.50
2018-04-10T03:55:19.292Z,28.63
2018-04-10T03:57:46.751Z,27.07
2018-04-10T04:00:14.240Z,28.63
2018-04-10T04:02:41.692Z,29.10
2018-04-10T04:05:09.148Z,25.67
2018-04-10T04:07:36.655Z,31.50
2018-04-10T04:12:54.517Z,26.63
2018-04-10T04:15:21.978Z,30.53
2018-04-10T04:17:49.440Z,32.13
2018-04-10T04:20:28.788Z,25.73
2018-04-10T04:22:56.247Z,29.23
2018-04-10T04:25:23.695Z,30.73
2018-04-10T04:27:51.237Z,23.10
2018-04-10T04:30:18.697Z,29.87
2018-04-10T04:32:46.160Z,29.87
2018-04-10T04:35:13.656Z,31.80
2018-04-10T04:37:41.176Z,29.47
2018-04-10T04:40:08.632Z,32.80
2018-04-10T04:42:36.099Z,33.37
2018-04-10T04:45:03.625Z,31.90
2018-04-10T04:47:31.095Z,33.77
2018-04-10T04:50:03.571Z,29.07
2018-04-10T04:52:31.032Z,34.50
2018-04-10T04:54:58.504Z,34.40
2018-04-10T04:57:25.970Z,31.30
2018-04-10T04:59:53.516Z,31.30
2018-04-10T05:02:20.972Z,28.70
2018-04-10T05:04:48.563Z,32.17
2018-04-10T05:07:16.068Z,28.90
2018-04-10T05:09:43.529Z,33.20
2018-04-10T05:12:11.013Z,30.23
2018-04-10T05:14:38.464Z,30.00
2018-04-10T05:17:05.921Z,30.13
2018-04-10T05:19:33.384Z,33.77
2018-04-10T05:22:00.862Z,27.63
2018-04-10T05:24:28.387Z,33.43
2018-04-10T05:26:55.884Z,30.23
2018-04-10T05:29:23.370Z,26.67
2018-04-10T05:31:50.898Z,29.10
2018-04-10T05:34:18.421Z,26.87
2018-04-10T05:36:45.902Z,27.97
2018-04-10T05:39:13.484Z,32.30
2018-04-10T05:41:41.102Z,30.03
2018-04-10T05:44:08.698Z,30.77
2018-04-10T05:46:36.162Z,31.40
2018-04-10T05:49:03.726Z,31.73
2018-04-10T05:51:31.211Z,27.23
2018-04-10T05:53:58.664Z,29.77
2018-04-10T05:56:26.124Z,27.60
2018-04-10T05:58:53.638Z,26.57
2018-04-10T06:01:21.155Z,27.73
2018-04-10T06:03:48.612Z,27.97
2018-04-10T06:06:16.214Z,27.17
2018-04-10T06:08:43.732Z,27.83
2018-04-10T06:11:11.200Z,30.00
2018-04-10T06:13:38.662Z,28.13
2018-04-10T06:16:06.157Z,29.73
2018-04-10T06:18:33.620Z,25.30
2018-04-10T06:21:01.084Z,26.40
2018-04-10T06:23:28.559Z,26.07
2018-04-10T06:25:56.025Z,25.23
2018-04-10T06:28:23.597Z,29.77
2018-04-10T06:30:51.090Z,28.33
2018-04-10T06:33:18.570Z,32.10
2018-04-10T06:35:46.040Z,29.20
2018-04-10T06:38:13.618Z,27.40
2018-04-10T06:40:41.181Z,27.70
2018-04-10T06:43:08.640Z,30.50
2018-04-10T06:45:36.231Z,24.83
2018-04-10T06:48:03.760Z,26.67
2018-04-10T06:50:31.212Z,30.97
2018-04-10T06:52:58.828Z,20.40
2018-04-10T06:55:26.380Z,27.83
2018-04-10T06:57:53.940Z,29.43
2018-04-10T07:00:21.430Z,24.07
2018-04-10T07:02:48.899Z,24.13
2018-04-10T07:05:16.365Z,23.00
2018-04-10T07:07:43.837Z,25.90
2018-04-10T07:10:11.308Z,24.00
2018-04-10T07:12:38.780Z,22.80
2018-04-10T07:15:06.240Z,29.13
2018-04-10T07:17:33.762Z,26.90
2018-04-10T07:20:01.223Z,27.23
2018-04-10T07:22:28.697Z,25.07
2018-04-10T07:24:56.333Z,28.47
2018-04-10T07:27:23.897Z,28.60
2018-04-10T07:29:51.424Z,28.70
2018-04-10T07:32:18.909Z,28.80
2018-04-10T07:34:46.395Z,29.00
2018-04-10T07:37:13.939Z,28.50
2018-04-10T07:39:41.416Z,27.80
2018-04-10T07:42:08.920Z,29.67
2018-04-10T07:44:36.374Z,29.10
2018-04-10T07:47:03.853Z,26.50
2018-04-10T07:49:31.344Z,27.80
2018-04-10T07:51:58.804Z,28.40
2018-04-10T07:54:26.397Z,26.90
2018-04-10T07:56:53.882Z,27.30
2018-04-10T07:59:21.359Z,23.67
2018-04-10T08:01:48.959Z,25.37
2018-04-10T08:04:16.480Z,25.93
2018-04-10T08:06:43.936Z,24.20
2018-04-10T08:09:11.389Z,25.50
2018-04-10T08:11:38.867Z,18.87
2018-04-10T08:14:06.321Z,27.63
2018-04-10T08:16:33.803Z,24.43
2018-04-10T08:19:01.265Z,24.87
2018-04-10T08:21:28.738Z,29.20
2018-04-10T08:23:56.371Z,26.90
2018-04-10T08:26:23.833Z,30.60
2018-04-10T08:28:51.341Z,26.43
2018-04-10T08:31:18.823Z,25.23
2018-04-10T08:33:46.280Z,27.73
2018-04-10T08:36:13.755Z,21.83
2018-04-10T08:38:41.245Z,27.30
2018-04-10T08:41:08.704Z,23.93
2018-04-10T08:43:36.166Z,23.00
2018-04-10T08:46:03.656Z,23.87
2018-04-10T08:48:31.115Z,23.20
2018-04-10T08:50:58.655Z,20.57
2018-04-10T08:53:26.160Z,19.90
2018-04-10T08:55:53.616Z,22.17
2018-04-10T08:58:21.083Z,23.27
2018-04-10T09:00:48.556Z,23.07
2018-04-10T09:03:16.013Z,20.90
2018-04-10T09:05:43.509Z,23.20
2018-04-10T09:08:10.982Z,20.73
2018-04-10T09:10:38.432Z,18.23
2018-04-10T09:13:06.027Z,22.23
2018-04-10T09:15:33.497Z,19.40
2018-04-10T09:18:00.957Z,21.47
2018-04-10T09:20:28.507Z,16.20
2018-04-10T09:22:56.057Z,21.93
2018-04-10T09:25:23.593Z,21.40
2018-04-10T09:27:51.088Z,18.73
2018-04-10T09:30:18.575Z,19.20
2018-04-10T09:32:46.061Z,17.33
2018-04-10T09:35:13.560Z,19.87
2018-04-10T09:37:41.020Z,20.03
2018-04-10T09:40:08.503Z,18.97
2018-04-10T09:42:35.984Z,22.07
2018-04-10T09:45:03.465Z,19.70
2018-04-10T09:47:30.965Z,18.37
2018-04-10T09:49:58.538Z,19.40
2018-04-10T09:52:26.013Z,19.50
2018-04-10T09:54:53.472Z,19.07
2018-04-10T09:57:21.044Z,19.80
2018-04-10T09:59:48.513Z,19.60
2018-04-10T10:02:15.968Z,20.80
2018-04-10T10:04:43.449Z,20.20
2018-04-10T10:07:12.849Z,18.57
2018-04-10T10:09:40.316Z,19.63
2018-04-10T10:12:07.808Z,20.07
2018-04-10T10:14:35.378Z,20.17
2018-04-10T10:17:02.840Z,17.20
2018-04-10T10:19:30.321Z,17.00
2018-04-10T10:21:57.772Z,20.40
2018-04-10T10:24:25.476Z,18.00
2018-04-10T10:26:52.975Z,17.33
2018-04-10T10:29:20.460Z,18.93
2018-04-10T10:31:47.948Z,17.03
2018-04-10T10:34:15.449Z,20.10
2018-04-10T10:36:42.947Z,17.73
2018-04-10T10:39:10.497Z,17.20
2018-04-10T10:41:38.065Z,18.40
2018-04-10T10:44:05.548Z,17.10
2018-04-10T10:46:33.030Z,17.83
2018-04-10T10:49:00.504Z,15.90
2018-04-10T10:51:27.983Z,17.20
2018-04-10T10:53:55.464Z,16.73
2018-04-10T10:56:22.933Z,16.20
2018-04-10T10:58:50.386Z,15.60
2018-04-10T11:01:17.874Z,13.87
2018-04-10T11:03:45.348Z,19.20
2018-04-10T11:06:12.844Z,14.73
2018-04-10T11:08:40.587Z,17.20
2018-04-10T11:11:08.165Z,15.87
2018-04-10T11:13:35.626Z,15.00
2018-04-10T11:16:03.155Z,15.00
2018-04-10T11:18:30.608Z,16.53
2018-04-10T11:20:58.111Z,15.90
2018-04-10T11:23:25.572Z,15.10
2018-04-10T11:25:53.028Z,16.87
2018-04-10T11:28:20.504Z,16.37
2018-04-10T11:30:48.130Z,14.83
2018-04-10T11:33:15.600Z,15.07
2018-04-10T11:35:43.080Z,15.37
2018-04-10T11:38:10.559Z,15.40
2018-04-10T11:40:38.028Z,15.00
2018-04-10T11:43:05.500Z,16.50
2018-04-10T11:45:33.008Z,16.47
2018-04-10T11:48:00.535Z,13.87
2018-04-10T11:50:28.041Z,16.87
2018-04-10T11:52:55.520Z,14.30
2018-04-10T11:55:22.982Z,16.23
2018-04-10T11:57:50.465Z,14.43
2018-04-10T12:00:17.956Z,15.03
2018-04-10T12:02:45.460Z,14.77
2018-04-10T12:05:12.938Z,17.73
2018-04-10T12:07:40.474Z,15.63
2018-04-10T12:10:07.948Z,16.70
2018-04-10T12:12:35.643Z,14.07
2018-04-10T12:15:03.134Z,14.10
2018-04-10T12:17:30.626Z,11.17
2018-04-10T12:19:58.092Z,14.23
2018-04-10T12:22:25.584Z,14.77
2018-04-10T12:24:53.056Z,14.20
2018-04-10T12:27:20.571Z,11.27
2018-04-10T12:29:48.075Z,11.67
2018-04-10T12:32:15.527Z,12.87
2018-04-10T12:34:42.991Z,11.77
2018-04-10T12:37:10.464Z,10.80
2018-04-10T12:39:38.005Z,9.33
2018-04-10T12:42:05.471Z,10.73
2018-04-10T12:44:32.960Z,9.40
2018-04-10T12:47:00.480Z,7.70
2018-04-10T12:49:27.946Z,9.10
2018-04-10T12:51:55.425Z,8.53
2018-04-10T12:54:22.882Z,6.77
2018-04-10T12:56:50.420Z,6.70
2018-04-10T12:59:17.927Z,5.97
2018-04-10T13:01:45.397Z,6.40
2018-04-10T13:04:12.849Z,6.70
2018-04-10T13:06:40.325Z,5.47
2018-04-10T13:09:07.828Z,5.27
2018-04-10T13:11:35.340Z,5.60
2018-04-10T13:14:02.884Z,7.47
2018-04-10T13:16:30.332Z,8.47
2018-04-10T13:18:57.827Z,7.90
2018-04-10T13:21:25.387Z,8.50
2018-04-10T13:23:52.851Z,8.47
2018-04-10T13:26:20.411Z,9.70
2018-04-10T13:28:47.880Z,9.80
2018-04-10T13:31:15.346Z,10.97
2018-04-10T13:33:42.921Z,10.90
2018-04-10T13:36:10.412Z,11.07
2018-04-10T13:38:37.868Z,10.60
2018-04-10T13:41:05.347Z,12.27
2018-04-10T13:43:32.848Z,10.77
2018-04-10T13:46:00.336Z,11.60
2018-04-10T13:48:27.791Z,11.43
2018-04-10T13:50:55.285Z,13.23
2018-04-10T13:53:22.872Z,13.10
2018-04-10T13:55:50.363Z,15.20
2018-04-10T13:58:17.956Z,13.70
2018-04-10T14:00:45.432Z,13.03
2018-04-10T14:03:12.947Z,13.23
2018-04-10T14:05:40.460Z,13.30
2018-04-10T14:08:07.936Z,13.67
2018-04-10T14:10:35.416Z,11.53
2018-04-10T14:13:03.062Z,14.07
2018-04-10T14:15:30.535Z,11.73
2018-04-10T14:17:58.703Z,12.17
2018-04-10T14:20:26.176Z,12.50
2018-04-10T14:22:53.688Z,13.67
2018-04-10T14:25:21.184Z,12.63
2018-04-10T14:27:48.643Z,10.90
2018-04-10T14:30:16.111Z,11.70
2018-04-10T14:32:43.636Z,10.83
2018-04-10T14:35:11.117Z,10.40
2018-04-10T14:37:38.573Z,9.87
2018-04-10T14:40:06.052Z,10.83
2018-04-10T14:42:33.522Z,11.30
2018-04-10T14:45:01.027Z,9.73
2018-04-10T14:47:28.598Z,10.20
2018-04-10T14:49:56.130Z,8.93
2018-04-10T14:52:23.593Z,10.00
2018-04-10T14:54:51.159Z,9.10
2018-04-10T14:57:18.619Z,9.20
2018-04-10T14:59:46.083Z,9.60
2018-04-10T15:02:13.640Z,10.67
2018-04-10T15:04:41.136Z,9.30
2018-04-10T15:07:08.604Z,8.70
2018-04-10T15:09:36.060Z,11.47
2018-04-10T15:12:03.588Z,10.20
2018-04-10T15:14:31.073Z,11.10
2018-04-10T15:16:58.565Z,10.10
2018-04-10T15:19:26.050Z,8.67
2018-04-10T15:21:53.528Z,8.80
2018-04-10T15:24:21.005Z,9.30
2018-04-10T15:26:48.469Z,9.50
2018-04-10T15:29:15.992Z,9.97
2018-04-10T15:31:43.576Z,9.53
2018-04-10T15:34:11.032Z,12.30
2018-04-10T15:36:38.488Z,9.30
2018-04-10T15:39:06.937Z,9.13
2018-04-10T15:41:34.396Z,7.93
2018-04-10T15:44:01.941Z,10.57
2018-04-10T15:46:29.436Z,9.40
2018-04-10T15:48:56.887Z,7.77
2018-04-10T15:51:24.339Z,9.23
2018-04-10T15:53:51.824Z,6.93
2018-04-10T15:56:19.284Z,7.23
2018-04-10T15:58:46.840Z,7.10
2018-04-10T16:01:14.346Z,6.50
2018-04-10T16:03:41.800Z,6.37
2018-04-10T16:06:09.258Z,7.87
2018-04-10T16:08:36.732Z,5.90
2018-04-10T16:11:04.194Z,3.83
2018-04-10T16:13:31.648Z,4.53
2018-04-10T16:15:59.133Z,4.10
2018-04-10T16:18:26.594Z,4.27
2018-04-10T16:20:54.054Z,3.27
2018-04-10T16:23:21.541Z,4.27
2018-04-10T16:25:49.004Z,4.60
2018-04-10T16:28:16.458Z,4.10
2018-04-10T16:30:43.944Z,5.10
2018-04-10T16:33:11.481Z,3.87
2018-04-10T16:35:38.950Z,3.90
2018-04-10T16:38:06.436Z,4.07
2018-04-10T16:40:33.925Z,3.90
2018-04-10T16:43:01.427Z,4.10
2018-04-10T16:45:28.949Z,4.90
2018-04-10T16:47:56.442Z,3.27
2018-04-10T16:50:24.114Z,3.87
2018-04-10T16:52:51.622Z,4.60
2018-04-10T16:55:19.100Z,3.20
2018-04-10T16:57:46.633Z,3.30
2018-04-10T17:00:14.075Z,3.17
2018-04-10T17:02:41.548Z,3.10
2018-04-10T17:05:09.004Z,3.80
2018-04-10T17:07:36.471Z,3.57
2018-04-10T17:10:03.976Z,4.80
2018-04-10T17:12:31.485Z,4.40
2018-04-10T17:14:58.903Z,5.30
2018-04-10T17:17:26.411Z,4.30
2018-04-10T17:19:53.865Z,4.13
2018-04-10T17:22:21.423Z,3.70
2018-04-10T17:24:48.936Z,3.70
2018-04-10T17:27:16.425Z,10.37
2018-04-10T17:29:43.897Z,3.73
2018-04-10T17:32:11.394Z,3.70
2018-04-10T17:34:38.851Z,5.87
2018-04-10T17:37:06.396Z,4.10
2018-04-10T17:39:33.937Z,2.70
2018-04-10T17:42:01.407Z,19.77
2018-04-10T17:44:28.868Z,4.50
2018-04-10T17:46:56.347Z,4.63
2018-04-10T17:49:23.806Z,4.03
2018-04-10T17:51:51.307Z,4.23
2018-04-10T17:54:18.868Z,3.60
2018-04-10T17:56:46.311Z,6.20
2018-04-10T17:59:13.768Z,6.33
2018-04-10T18:01:41.255Z,5.43
2018-04-10T18:04:08.707Z,4.00
2018-04-10T18:06:36.175Z,15.03
2018-04-10T18:09:03.649Z,4.90
2018-04-10T18:11:31.129Z,3.80
2018-04-10T18:13:58.625Z,4.03
2018-04-10T18:16:26.197Z,4.10
2018-04-10T18:18:53.681Z,5.23
2018-04-10T18:21:21.160Z,4.00
2018-04-10T18:23:48.663Z,4.37
2018-04-10T18:26:16.129Z,4.40
2018-04-10T18:28:43.603Z,5.77
2018-04-10T18:31:11.134Z,5.30
2018-04-10T18:33:38.589Z,4.47
2018-04-10T18:36:06.095Z,3.63
2018-04-10T18:38:33.582Z,3.73
2018-04-10T18:41:01.067Z,4.57
2018-04-10T18:43:28.538Z,4.80
2018-04-10T18:45:56.024Z,4.37
2018-04-10T18:48:23.561Z,4.57
2018-04-10T18:50:51.037Z,4.60
2018-04-10T18:53:18.557Z,4.63
2018-04-10T18:55:46.040Z,4.50
2018-04-10T18:58:13.556Z,4.90
2018-04-10T19:00:40.997Z,5.93
2018-04-10T19:03:08.483Z,6.13
2018-04-10T19:05:35.992Z,7.40
2018-04-10T19:08:03.462Z,10.13
2018-04-10T19:10:30.964Z,12.43
2018-04-10T19:12:58.436Z,11.90
2018-04-10T19:15:25.893Z,14.60
2018-04-10T19:17:53.424Z,14.37
2018-04-10T19:20:20.932Z,14.10
2018-04-10T19:22:48.726Z,15.07
2018-04-10T19:25:16.260Z,14.73
2018-04-10T19:27:43.736Z,15.30
2018-04-10T19:30:11.208Z,14.80
2018-04-10T19:32:38.749Z,14.77
2018-04-10T19:35:06.310Z,14.67
2018-04-10T19:37:33.868Z,15.77
2018-04-10T19:40:01.396Z,15.17
2018-04-10T19:42:28.868Z,14.40
2018-04-10T19:44:56.550Z,16.03
2018-04-10T19:47:24.108Z,16.10
2018-04-10T19:49:51.581Z,15.83
2018-04-10T19:52:19.096Z,14.67
2018-04-10T19:54:46.614Z,16.10
2018-04-10T19:57:14.134Z,16.20
2018-04-10T19:59:41.604Z,16.10
2018-04-10T20:02:09.225Z,15.87
2018-04-10T20:04:36.787Z,15.87
2018-04-10T20:07:04.493Z,15.77
2018-04-10T20:09:32.090Z,16.93
2018-04-10T20:11:59.564Z,16.10
2018-04-10T20:14:27.147Z,16.30
2018-04-10T20:16:54.727Z,16.50
2018-04-10T20:19:22.195Z,14.10
2018-04-10T20:21:49.717Z,14.60
2018-04-10T20:24:17.207Z,16.13
2018-04-10T20:26:44.760Z,16.60
2018-04-10T20:29:12.224Z,15.80
2018-04-10T20:31:39.720Z,15.60
2018-04-10T20:34:07.196Z,16.33
2018-04-10T20:36:34.813Z,16.80
2018-04-10T20:39:02.304Z,15.13
2018-04-10T20:41:29.768Z,17.63
2018-04-10T20:43:57.317Z,16.47
2018-04-10T20:46:24.997Z,15.67
2018-04-10T20:48:52.470Z,17.70
2018-04-10T20:51:19.933Z,16.60
2018-04-10T20:53:47.473Z,15.70
2018-04-10T20:56:14.933Z,16.47
2018-04-10T20:58:42.392Z,16.03
2018-04-10T21:01:09.932Z,16.80
2018-04-10T21:03:37.408Z,16.77
2018-04-10T21:06:04.860Z,18.40
2018-04-10T21:08:32.361Z,15.37
2018-04-10T21:10:59.820Z,16.80
2018-04-10T21:13:27.312Z,19.67
2018-04-10T21:15:54.792Z,17.80
2018-04-10T21:18:22.248Z,15.90
2018-04-10T21:20:49.836Z,15.30
2018-04-10T21:23:17.323Z,17.50
2018-04-10T21:25:44.831Z,16.17
2018-04-10T21:28:12.266Z,16.53
2018-04-10T21:30:39.759Z,16.10
2018-04-10T21:33:07.216Z,17.00
2018-04-10T21:35:34.680Z,16.30
2018-04-10T21:38:02.170Z,19.80
2018-04-10T21:40:29.632Z,17.90
2018-04-10T21:43:02.839Z,20.07
2018-04-10T21:45:30.320Z,17.63
2018-04-10T21:47:57.810Z,15.97
2018-04-10T21:50:25.308Z,18.63
2018-04-10T21:52:52.768Z,17.50
2018-04-10T21:55:20.232Z,18.27
2018-04-10T21:57:47.716Z,18.53
2018-04-10T22:00:15.189Z,19.00
2018-04-10T22:02:42.668Z,18.30
2018-04-10T22:05:10.155Z,19.80
2018-04-10T22:07:37.627Z,20.00
2018-04-10T22:10:05.089Z,19.00
2018-04-10T22:12:32.589Z,18.43
2018-04-10T22:15:00.055Z,17.80
2018-04-10T22:17:27.561Z,17.40
2018-04-10T22:19:55.056Z,20.27
2018-04-10T22:22:22.540Z,17.27
2018-04-10T22:24:50.032Z,18.57
2018-04-10T22:27:17.692Z,18.73
2018-04-10T22:29:45.313Z,20.30
2018-04-10T22:32:12.836Z,19.80
2018-04-10T22:34:40.365Z,17.50
2018-04-10T22:37:07.869Z,18.90
2018-04-10T22:39:35.340Z,18.00
2018-04-10T22:42:02.816Z,18.00
2018-04-10T22:44:30.297Z,17.70
2018-04-10T22:46:57.833Z,18.80
2018-04-10T22:49:25.298Z,18.67
2018-04-10T22:51:52.762Z,18.80
2018-04-10T22:54:25.180Z,19.67
2018-04-10T22:56:52.693Z,18.07
2018-04-10T22:59:20.159Z,18.63
2018-04-10T23:01:47.649Z,18.17
2018-04-10T23:04:15.112Z,18.97
2018-04-10T23:06:42.582Z,18.53
2018-04-10T23:09:10.077Z,17.57
2018-04-10T23:11:37.555Z,18.90
2018-04-10T23:14:05.055Z,15.50
2018-04-10T23:16:32.544Z,18.87
2018-04-10T23:19:00.032Z,18.60
2018-04-10T23:21:27.511Z,15.57
2018-04-10T23:23:55.006Z,19.20
2018-04-10T23:26:22.464Z,17.57
2018-04-10T23:28:49.937Z,17.20
2018-04-10T23:31:17.423Z,15.97
2018-04-10T23:33:44.893Z,17.07
2018-04-10T23:36:12.453Z,16.07
2018-04-10T23:38:39.956Z,16.83
2018-04-10T23:41:07.440Z,17.07
2018-04-10T23:43:34.905Z,17.10
2018-04-10T23:46:02.390Z,17.03
2018-04-10T23:48:29.855Z,16.30
2018-04-10T23:50:57.305Z,13.80
2018-04-10T23:53:24.784Z,17.53
2018-04-10T23:55:52.243Z,15.80
2018-04-10T23:58:19.708Z,16.10
